createdAt,value
2023-03-26T00:01:24.890Z,2.88
2023-03-26T00:04:04.569Z,2.65
2023-03-26T00:06:45.629Z,3.06
2023-03-26T00:09:25.991Z,3.15
2023-03-26T00:12:05.411Z,3.13
2023-03-26T00:14:49.964Z,3.25
2023-03-26T00:17:29.581Z,3.52
2023-03-26T00:20:09.310Z,2.98
2023-03-26T00:22:49.127Z,3.22
2023-03-26T00:25:29.522Z,2.86
2023-03-26T00:28:09.118Z,3.34
2023-03-26T00:30:53.545Z,3.00
2023-03-26T00:33:36.254Z,2.94
2023-03-26T00:36:18.698Z,3.31
2023-03-26T00:38:58.152Z,3.05
2023-03-26T00:41:38.090Z,3.56
2023-03-26T00:44:17.544Z,3.09
2023-03-26T00:47:01.964Z,3.66
2023-03-26T00:49:41.477Z,3.28
2023-03-26T00:52:20.832Z,3.47
2023-03-26T00:55:00.232Z,3.42
2023-03-26T00:57:39.638Z,3.60
2023-03-26T01:00:23.299Z,3.95
2023-03-26T01:03:08.038Z,3.60
2023-03-26T01:05:54.200Z,4.22
2023-03-26T01:08:39.411Z,3.58
2023-03-26T01:11:21.806Z,3.74
2023-03-26T01:14:05.261Z,3.85
2023-03-26T01:16:48.392Z,3.61
2023-03-26T01:19:39.193Z,3.40
2023-03-26T01:22:22.785Z,3.47
2023-03-26T01:25:08.461Z,3.62
2023-03-26T01:27:53.632Z,3.60
2023-03-26T01:30:42.779Z,3.70
2023-03-26T01:33:37.760Z,3.77
2023-03-26T01:36:27.881Z,3.63
2023-03-26T01:39:19.997Z,3.45
2023-03-26T01:42:10.279Z,4.00
2023-03-26T01:45:00.161Z,3.81
2023-03-26T01:47:42.306Z,4.31
2023-03-26T01:50:22.056Z,4.16
2023-03-26T01:53:01.421Z,4.18
2023-03-26T01:55:57.915Z,3.92
2023-03-26T01:58:55.835Z,4.18
2023-03-26T02:01:46.577Z,4.05
2023-03-26T02:04:33.601Z,4.12
2023-03-26T02:07:24.862Z,3.97
2023-03-26T02:10:11.659Z,3.58
2023-03-26T02:12:52.377Z,4.02
2023-03-26T02:15:36.813Z,3.94
2023-03-26T02:18:17.018Z,4.34
2023-03-26T02:20:56.954Z,3.88
2023-03-26T02:23:39.791Z,3.70
2023-03-26T02:26:19.169Z,3.91
2023-03-26T02:28:58.519Z,3.58
2023-03-26T02:31:43.021Z,4.51
2023-03-26T02:34:23.329Z,4.80
2023-03-26T02:37:03.198Z,4.48
2023-03-26T02:39:43.607Z,8.12
2023-03-26T02:42:23.087Z,5.65
2023-03-26T02:45:02.658Z,4.98
2023-03-26T02:47:47.266Z,4.71
2023-03-26T02:50:26.656Z,4.49
2023-03-26T02:53:06.228Z,4.84
2023-03-26T02:55:45.584Z,5.43
2023-03-26T02:58:26.553Z,8.61
2023-03-26T03:01:06.784Z,5.66
2023-03-26T03:03:51.375Z,5.65
2023-03-26T03:06:32.355Z,6.48
2023-03-26T03:09:11.683Z,5.99
2023-03-26T03:11:51.096Z,5.16
2023-03-26T03:14:30.437Z,5.93
2023-03-26T03:17:09.767Z,5.27
2023-03-26T03:19:54.274Z,4.92
2023-03-26T03:22:35.052Z,4.57
2023-03-26T03:25:15.619Z,3.07
2023-03-26T03:27:55.186Z,2.93
2023-03-26T03:30:34.518Z,2.88
2023-03-26T03:33:14.334Z,2.89
2023-03-26T03:36:00.555Z,2.88
2023-03-26T03:38:39.953Z,3.28
2023-03-26T03:41:19.800Z,3.37
2023-03-26T03:44:00.975Z,2.88
2023-03-26T03:46:40.458Z,3.11
2023-03-26T03:49:19.878Z,2.69
2023-03-26T03:52:04.644Z,2.81
2023-03-26T03:54:43.999Z,2.71
2023-03-26T03:57:23.394Z,2.81
2023-03-26T04:00:04.530Z,3.23
2023-03-26T04:02:49.023Z,2.65
2023-03-26T04:05:28.426Z,3.16
2023-03-26T04:08:13.326Z,2.92
2023-03-26T04:10:52.675Z,2.99
2023-03-26T04:13:32.473Z,3.08
2023-03-26T04:16:12.447Z,2.95
2023-03-26T04:18:51.815Z,3.10
2023-03-26T04:21:31.662Z,2.98
2023-03-26T04:24:17.325Z,2.99
2023-03-26T04:26:56.965Z,3.47
2023-03-26T04:29:44.033Z,3.40
2023-03-26T04:32:31.015Z,3.51
2023-03-26T04:35:11.513Z,3.54
2023-03-26T04:37:51.949Z,3.62
2023-03-26T04:40:38.594Z,3.35
2023-03-26T04:43:20.796Z,3.41
2023-03-26T04:46:04.595Z,3.56
2023-03-26T04:48:44.457Z,3.14
2023-03-26T04:51:25.744Z,3.22
2023-03-26T04:54:09.291Z,3.38
2023-03-26T04:57:00.783Z,3.28
2023-03-26T04:59:42.779Z,3.38
2023-03-26T05:02:22.097Z,2.95
2023-03-26T05:05:04.229Z,3.01
2023-03-26T05:07:43.662Z,2.98
2023-03-26T05:10:24.912Z,2.92
2023-03-26T05:13:09.374Z,2.81
2023-03-26T05:15:48.728Z,3.54
2023-03-26T05:18:28.003Z,3.34
2023-03-26T05:21:07.624Z,3.52
2023-03-26T05:23:46.948Z,3.33
2023-03-26T05:26:27.679Z,3.69
2023-03-26T05:29:12.116Z,3.76
2023-03-26T05:31:51.840Z,3.35
2023-03-26T05:34:31.202Z,3.25
2023-03-26T05:37:11.281Z,3.46
2023-03-26T05:39:50.588Z,3.31
2023-03-26T05:42:30.215Z,3.31
2023-03-26T05:45:16.703Z,3.90
2023-03-26T05:47:59.614Z,3.57
2023-03-26T05:50:38.967Z,3.64
2023-03-26T05:53:19.479Z,3.05
2023-03-26T05:56:00.048Z,3.38
2023-03-26T05:58:43.327Z,3.14
2023-03-26T06:01:27.723Z,3.23
2023-03-26T06:04:07.386Z,3.47
2023-03-26T06:06:46.906Z,3.50
2023-03-26T06:09:26.281Z,3.56
2023-03-26T06:12:05.651Z,3.55
2023-03-26T06:14:45.249Z,3.54
2023-03-26T06:17:29.637Z,3.46
2023-03-26T06:20:09.643Z,3.49
2023-03-26T06:22:49.424Z,3.55
2023-03-26T06:25:28.962Z,3.78
2023-03-26T06:28:08.265Z,4.22
2023-03-26T06:30:47.848Z,3.69
2023-03-26T06:33:32.479Z,4.13
2023-03-26T06:36:12.919Z,5.17
2023-03-26T06:38:52.352Z,4.45
2023-03-26T06:41:31.763Z,4.48
2023-03-26T06:44:11.133Z,4.55
2023-03-26T06:46:51.530Z,4.47
2023-03-26T06:49:36.163Z,5.02
2023-03-26T06:52:15.621Z,4.68
2023-03-26T06:54:54.992Z,4.34
2023-03-26T06:57:34.541Z,4.77
2023-03-26T07:00:15.385Z,5.03
2023-03-26T07:02:55.193Z,4.97
2023-03-26T07:05:39.720Z,4.82
2023-03-26T07:08:20.619Z,5.42
2023-03-26T07:11:00.040Z,5.35
2023-03-26T07:13:41.200Z,5.18
2023-03-26T07:16:20.702Z,4.76
2023-03-26T07:19:00.115Z,3.88
2023-03-26T07:21:45.559Z,3.77
2023-03-26T07:24:25.959Z,3.49
2023-03-26T07:27:14.066Z,3.71
2023-03-26T07:29:59.758Z,3.75
2023-03-26T07:32:48.854Z,3.71
2023-03-26T07:35:34.234Z,3.87
2023-03-26T07:38:42.733Z,3.73
2023-03-26T07:41:35.015Z,3.64
2023-03-26T07:44:34.076Z,4.04
2023-03-26T07:47:31.095Z,4.28
2023-03-26T07:50:11.737Z,4.07
2023-03-26T07:52:51.802Z,3.95
2023-03-26T07:55:37.091Z,3.76
2023-03-26T07:58:43.953Z,4.03
2023-03-26T08:01:37.063Z,3.83
2023-03-26T08:04:53.017Z,3.76
2023-03-26T08:07:43.789Z,4.22
2023-03-26T08:10:30.260Z,4.28
2023-03-26T08:13:28.345Z,3.89
2023-03-26T08:16:17.844Z,4.12
2023-03-26T08:19:05.358Z,4.34
2023-03-26T08:21:54.962Z,4.53
2023-03-26T08:24:47.616Z,4.74
2023-03-26T08:27:35.763Z,4.73
2023-03-26T08:30:27.905Z,5.40
2023-03-26T08:33:19.251Z,11.40
2023-03-26T08:36:00.213Z,8.62
2023-03-26T08:38:39.592Z,9.27
2023-03-26T08:41:49.207Z,7.73
2023-03-26T08:45:10.811Z,7.39
2023-03-26T08:48:18.185Z,7.07
2023-03-26T08:51:40.216Z,5.82
2023-03-26T08:54:47.706Z,6.10
2023-03-26T08:57:59.548Z,5.90
2023-03-26T09:01:19.424Z,5.85
2023-03-26T09:04:28.419Z,5.82
2023-03-26T09:07:40.819Z,5.59
2023-03-26T09:10:56.292Z,5.29
2023-03-26T09:14:03.687Z,5.74
2023-03-26T09:17:24.877Z,5.35
2023-03-26T09:20:46.685Z,4.90
2023-03-26T09:23:57.301Z,4.82
2023-03-26T09:26:53.009Z,5.69
2023-03-26T09:30:03.397Z,7.27
2023-03-26T09:33:18.044Z,12.89
2023-03-26T09:36:23.502Z,14.51
2023-03-26T09:39:17.394Z,13.96
2023-03-26T09:42:15.460Z,10.71
2023-03-26T09:45:27.104Z,6.59
2023-03-26T09:48:27.023Z,5.33
2023-03-26T09:51:37.036Z,4.42
2023-03-26T09:54:57.302Z,5.74
2023-03-26T09:57:59.972Z,4.92
2023-03-26T10:00:48.787Z,4.70
2023-03-26T10:03:42.155Z,5.22
2023-03-26T10:06:55.820Z,3.88
2023-03-26T10:09:57.596Z,2.09
2023-03-26T10:12:44.062Z,1.82
2023-03-26T10:15:39.492Z,1.88
2023-03-26T10:18:34.104Z,1.72
2023-03-26T10:21:25.275Z,1.69
2023-03-26T10:24:31.224Z,1.83
2023-03-26T10:27:36.110Z,1.73
2023-03-26T10:30:41.694Z,1.59
2023-03-26T10:33:33.033Z,1.62
2023-03-26T10:36:32.374Z,1.92
2023-03-26T10:39:42.412Z,2.35
2023-03-26T10:43:04.450Z,2.08
2023-03-26T10:46:11.416Z,2.07
2023-03-26T10:49:12.304Z,2.65
2023-03-26T10:52:00.592Z,2.78
2023-03-26T10:55:02.398Z,2.79
2023-03-26T10:57:51.585Z,2.65
2023-03-26T11:00:33.234Z,2.85
2023-03-26T11:03:42.015Z,2.41
2023-03-26T11:06:35.376Z,1.93
2023-03-26T11:09:28.422Z,1.67
2023-03-26T11:12:26.507Z,2.26
2023-03-26T11:15:26.074Z,1.47
2023-03-26T11:18:19.068Z,1.80
2023-03-26T11:21:19.970Z,1.72
2023-03-26T11:24:15.047Z,1.61
2023-03-26T11:27:14.936Z,1.71
2023-03-26T11:30:10.584Z,1.74
2023-03-26T11:32:55.099Z,1.60
2023-03-26T11:35:41.343Z,2.05
2023-03-26T11:38:33.161Z,1.88
2023-03-26T11:41:22.712Z,1.60
2023-03-26T11:44:08.445Z,1.57
2023-03-26T11:46:53.107Z,1.45
2023-03-26T11:49:34.280Z,1.65
2023-03-26T11:52:13.747Z,1.73
2023-03-26T11:55:00.620Z,1.57
2023-03-26T11:57:44.368Z,1.56
2023-03-26T12:00:28.617Z,1.44
2023-03-26T12:03:08.024Z,1.72
2023-03-26T12:05:56.672Z,1.85
2023-03-26T12:08:42.212Z,1.61
2023-03-26T12:11:35.903Z,1.66
2023-03-26T12:14:15.587Z,1.66
2023-03-26T12:17:10.063Z,1.54
2023-03-26T12:19:51.904Z,1.74
2023-03-26T12:22:41.716Z,1.53
2023-03-26T12:25:26.384Z,1.45
2023-03-26T12:28:19.678Z,1.40
2023-03-26T12:31:05.654Z,1.38
2023-03-26T12:33:46.150Z,1.32
2023-03-26T12:36:30.409Z,1.42
2023-03-26T12:40:10.740Z,1.41
2023-03-26T12:44:53.176Z,1.37
2023-03-26T12:45:46.658Z,1.41
2023-03-26T12:48:47.032Z,1.41
2023-03-26T12:51:39.320Z,1.74
2023-03-26T12:54:34.323Z,6.90
2023-03-26T12:57:27.796Z,3.61
2023-03-26T13:00:26.132Z,1.64
2023-03-26T13:03:43.140Z,4.87
2023-03-26T13:07:00.155Z,8.88
2023-03-26T13:10:06.703Z,1.43
2023-03-26T13:12:53.886Z,5.73
2023-03-26T13:15:40.277Z,1.56
2023-03-26T13:18:36.860Z,1.54
2023-03-26T13:21:25.924Z,1.80
2023-03-26T13:24:18.215Z,3.62
2023-03-26T13:27:12.759Z,6.60
2023-03-26T13:30:04.168Z,2.12
2023-03-26T13:32:58.939Z,2.11
2023-03-26T13:36:00.235Z,1.35
2023-03-26T13:39:00.788Z,1.31
2023-03-26T13:41:59.262Z,1.99
2023-03-26T13:45:04.550Z,1.04
2023-03-26T13:47:52.402Z,0.95
2023-03-26T13:50:36.422Z,1.51
2023-03-26T13:53:26.662Z,0.94
2023-03-26T13:56:08.187Z,0.74
2023-03-26T13:58:55.278Z,0.77
2023-03-26T14:01:42.379Z,0.89
2023-03-26T14:04:33.396Z,1.16
2023-03-26T14:07:23.801Z,1.06
2023-03-26T14:10:15.758Z,1.04
2023-03-26T14:13:03.797Z,2.99
2023-03-26T14:15:51.814Z,2.06
2023-03-26T14:18:44.313Z,2.11
2023-03-26T14:21:59.234Z,1.94
2023-03-26T14:25:11.763Z,2.51
2023-03-26T14:28:11.688Z,2.43
2023-03-26T14:31:10.642Z,2.97
2023-03-26T14:34:04.354Z,1.75
2023-03-26T14:37:12.993Z,1.53
2023-03-26T14:40:16.157Z,1.23
2023-03-26T14:43:18.622Z,1.33
2023-03-26T14:46:13.423Z,1.14
2023-03-26T14:49:31.947Z,2.01
2023-03-26T14:52:15.761Z,1.17
2023-03-26T14:55:00.560Z,2.25
2023-03-26T14:58:10.213Z,1.56
2023-03-26T15:01:36.263Z,1.24
2023-03-26T15:04:49.368Z,1.22
2023-03-26T15:07:56.055Z,1.72
2023-03-26T15:11:01.347Z,1.63
2023-03-26T15:14:08.230Z,2.79
2023-03-26T15:17:30.082Z,1.65
2023-03-26T15:20:43.574Z,2.31
2023-03-26T15:23:54.300Z,0.86
2023-03-26T15:27:21.509Z,1.42
2023-03-26T15:30:45.621Z,2.94
2023-03-26T15:34:04.129Z,9.40
2023-03-26T15:37:24.042Z,13.38
2023-03-26T15:40:30.710Z,9.19
2023-03-26T15:43:19.529Z,14.57
2023-03-26T15:46:33.496Z,17.00
2023-03-26T15:49:23.973Z,7.83
2023-03-26T15:52:13.856Z,2.08
2023-03-26T15:55:03.032Z,1.27
2023-03-26T15:57:50.576Z,3.52
2023-03-26T16:00:33.098Z,1.01
2023-03-26T16:03:40.988Z,3.23
2023-03-26T16:06:35.583Z,2.07
2023-03-26T16:09:46.927Z,1.41
2023-03-26T16:12:38.623Z,0.98
2023-03-26T16:15:37.838Z,1.10
2023-03-26T16:18:45.173Z,2.20
2023-03-26T16:21:47.292Z,1.29
2023-03-26T16:24:33.536Z,1.60
2023-03-26T16:27:35.397Z,3.15
2023-03-26T16:30:34.754Z,1.03
2023-03-26T16:33:22.691Z,0.82
2023-03-26T16:36:35.576Z,1.36
2023-03-26T16:39:28.705Z,2.03
2023-03-26T16:42:16.877Z,2.50
2023-03-26T16:45:10.792Z,1.05
2023-03-26T16:48:03.085Z,1.63
2023-03-26T16:50:54.381Z,2.83
2023-03-26T16:53:48.399Z,2.28
2023-03-26T16:56:38.371Z,1.37
2023-03-26T16:59:43.456Z,0.57
2023-03-26T17:02:34.195Z,0.63
2023-03-26T17:05:25.183Z,0.80
2023-03-26T17:08:12.446Z,0.74
2023-03-26T17:11:07.252Z,0.59
2023-03-26T17:14:02.288Z,1.01
2023-03-26T17:16:47.792Z,2.52
2023-03-26T17:19:40.901Z,2.89
2023-03-26T17:22:37.211Z,0.93
2023-03-26T17:25:30.419Z,1.10
2023-03-26T17:28:34.394Z,0.96
2023-03-26T17:31:28.365Z,0.52
2023-03-26T17:34:38.385Z,0.64
2023-03-26T17:37:32.556Z,0.90
2023-03-26T17:40:36.359Z,1.11
2023-03-26T17:43:45.129Z,1.06
2023-03-26T17:46:41.867Z,0.79
2023-03-26T17:49:28.257Z,0.63
2023-03-26T17:52:22.879Z,0.60
2023-03-26T17:55:04.109Z,0.56
2023-03-26T17:57:51.198Z,0.59
2023-03-26T18:00:41.148Z,0.54
2023-03-26T18:03:30.841Z,1.03
2023-03-26T18:06:18.995Z,2.23
2023-03-26T18:09:13.205Z,0.90
2023-03-26T18:12:26.827Z,0.84
2023-03-26T18:15:28.989Z,1.18
2023-03-26T18:18:21.101Z,2.49
2023-03-26T18:21:03.590Z,0.87
2023-03-26T18:23:46.507Z,1.32
2023-03-26T18:26:30.120Z,3.53
2023-03-26T18:29:27.010Z,3.02
2023-03-26T18:32:08.571Z,3.37
2023-03-26T18:34:55.399Z,3.78
2023-03-26T18:37:36.519Z,3.91
2023-03-26T18:40:20.443Z,6.90
2023-03-26T18:43:02.812Z,3.99
2023-03-26T18:45:46.339Z,2.58
2023-03-26T18:48:28.504Z,1.42
2023-03-26T18:51:17.139Z,1.75
2023-03-26T18:53:59.599Z,1.95
2023-03-26T18:56:43.667Z,3.60
2023-03-26T18:59:33.665Z,3.15
2023-03-26T19:02:20.029Z,3.06
2023-03-26T19:04:59.959Z,6.20
2023-03-26T19:07:45.235Z,18.42
2023-03-26T19:10:26.731Z,21.68
2023-03-26T19:13:08.650Z,27.99
2023-03-26T19:15:50.398Z,38.35
2023-03-26T19:18:33.752Z,19.32
2023-03-26T19:21:14.468Z,4.65
2023-03-26T19:24:00.801Z,2.02
2023-03-26T19:26:40.468Z,6.62
2023-03-26T19:29:23.205Z,6.47
2023-03-26T19:32:10.306Z,1.91
2023-03-26T19:34:52.559Z,1.66
2023-03-26T19:37:35.080Z,1.37
2023-03-26T19:40:31.096Z,1.34
2023-03-26T19:43:10.497Z,1.34
2023-03-26T19:45:59.606Z,1.73
2023-03-26T19:48:46.247Z,1.41
2023-03-26T19:51:30.135Z,1.49
2023-03-26T19:54:20.406Z,1.46
2023-03-26T19:57:04.941Z,1.05
2023-03-26T19:59:44.256Z,1.22
2023-03-26T20:02:30.422Z,1.52
2023-03-26T20:05:09.772Z,1.14
2023-03-26T20:07:51.424Z,1.09
2023-03-26T20:10:30.875Z,0.98
2023-03-26T20:13:22.374Z,1.24
2023-03-26T20:16:09.811Z,1.21
2023-03-26T20:18:52.223Z,1.27
2023-03-26T20:21:33.474Z,1.09
2023-03-26T20:24:19.766Z,0.95
2023-03-26T20:26:59.103Z,1.06
2023-03-26T20:29:43.637Z,1.22
2023-03-26T20:32:28.461Z,1.08
2023-03-26T20:35:08.468Z,1.05
2023-03-26T20:37:48.290Z,1.08
2023-03-26T20:40:28.132Z,1.08
2023-03-26T20:43:07.854Z,1.12
2023-03-26T20:45:53.255Z,1.14
2023-03-26T20:48:32.928Z,1.25
2023-03-26T20:51:13.906Z,1.20
2023-03-26T20:53:54.672Z,1.47
2023-03-26T20:56:34.122Z,1.20
2023-03-26T20:59:13.462Z,1.50
2023-03-26T21:01:58.234Z,1.47
2023-03-26T21:04:37.584Z,1.42
2023-03-26T21:07:18.525Z,1.47
2023-03-26T21:09:59.347Z,1.90
2023-03-26T21:12:47.550Z,5.90
2023-03-26T21:15:28.895Z,2.41
2023-03-26T21:18:14.383Z,1.66
2023-03-26T21:21:20.083Z,1.58
2023-03-26T21:24:07.527Z,1.54
2023-03-26T21:26:57.544Z,1.41
2023-03-26T21:29:37.401Z,1.46
2023-03-26T21:32:18.562Z,1.41
2023-03-26T21:35:04.671Z,1.49
2023-03-26T21:37:45.287Z,1.55
2023-03-26T21:40:26.414Z,1.43
2023-03-26T21:43:06.360Z,1.57
2023-03-26T21:45:46.545Z,1.27
2023-03-26T21:48:26.517Z,1.18
2023-03-26T21:51:11.706Z,1.32
2023-03-26T21:53:51.831Z,1.39
2023-03-26T21:56:48.768Z,1.32
2023-03-26T21:59:39.905Z,1.38
2023-03-26T22:02:30.538Z,1.35
2023-03-26T22:05:20.303Z,1.25
2023-03-26T22:08:09.389Z,1.36
2023-03-26T22:10:49.186Z,1.33
2023-03-26T22:13:28.974Z,1.42
2023-03-26T22:16:08.867Z,1.43
2023-03-26T22:18:48.308Z,1.46
2023-03-26T22:21:27.629Z,1.28
2023-03-26T22:24:13.406Z,1.32
2023-03-26T22:26:52.805Z,1.50
2023-03-26T22:29:32.158Z,1.34
2023-03-26T22:32:11.784Z,1.22
2023-03-26T22:34:53.338Z,1.28
2023-03-26T22:37:32.731Z,1.27
2023-03-26T22:40:19.135Z,1.05
2023-03-26T22:42:58.686Z,1.02
2023-03-26T22:45:38.683Z,0.83
2023-03-26T22:48:18.119Z,1.00
2023-03-26T22:51:05.004Z,1.02
2023-03-26T22:53:44.904Z,0.79
2023-03-26T22:56:29.316Z,0.80
2023-03-26T22:59:10.187Z,0.65
2023-03-26T23:01:49.578Z,0.60
2023-03-26T23:04:31.481Z,0.60
2023-03-26T23:07:11.961Z,0.74
2023-03-26T23:09:51.292Z,0.43
2023-03-26T23:12:35.679Z,0.50
2023-03-26T23:15:16.456Z,0.38
2023-03-26T23:17:55.841Z,0.41
2023-03-26T23:20:40.393Z,0.35
2023-03-26T23:23:19.898Z,0.30
2023-03-26T23:26:00.088Z,0.34
2023-03-26T23:28:44.985Z,0.37
2023-03-26T23:31:26.593Z,0.30
2023-03-26T23:34:06.933Z,0.37
2023-03-26T23:36:46.764Z,0.40
2023-03-26T23:39:27.476Z,0.33
2023-03-26T23:42:06.812Z,0.36
2023-03-26T23:44:52.196Z,0.36
2023-03-26T23:47:35.423Z,0.40
2023-03-26T23:50:18.093Z,0.60
2023-03-26T23:52:57.948Z,0.59
2023-03-26T23:55:37.944Z,0.55
2023-03-26T23:58:17.247Z,0.60
